Minneapolis, Minnesota
Traffic Map
Current Weather Conditions
Minneapolis, Minnesota
Overcast
Overcast

Feels Like: 5°
Wind Chill: Ceiling: 4800
Heat Index: Visibility: 9mi
Dew Point: Wind: 0mph
Humidity: 79% Direction: ° ()
Pressure: 30.07in Gusts: 0mph
Raw Report DataKMSP 301453Z 00000KT 9SM OVC048 05/02 A3007 RMK AO2 SLP189 T00500017 53007
Traffic Incident Summary
Active as of:
Severity:
Category:
InformationThere was an issue retrieving the traffic information for this location. Please try a different location or try again shortly.
Advertisements
Track Severe Weather on mobile